createdAt,value
2023-04-18T05:22:42.554Z,81.07
2023-04-18T05:25:10.757Z,81.16
2023-04-18T05:27:38.865Z,80.99
2023-04-18T05:30:07.687Z,80.96
2023-04-18T05:32:35.827Z,80.83
2023-04-18T05:35:03.983Z,80.56
2023-04-18T05:37:31.924Z,80.89
2023-04-18T05:40:00.930Z,80.85
2023-04-18T05:42:29.368Z,80.92
2023-04-18T05:44:57.361Z,80.72
2023-04-18T05:47:28.533Z,80.70
2023-04-18T05:49:56.560Z,80.78
2023-04-18T05:52:26.226Z,80.50
2023-04-18T05:54:54.305Z,80.31
2023-04-18T05:57:22.396Z,80.16
2023-04-18T05:59:50.600Z,80.31
2023-04-18T06:02:18.629Z,80.12
2023-04-18T06:04:46.814Z,80.22
2023-04-18T06:07:14.937Z,80.15
2023-04-18T06:09:43.083Z,79.80
2023-04-18T06:12:11.251Z,79.30
2023-04-18T06:14:39.388Z,79.43
2023-04-18T06:17:07.695Z,79.34
2023-04-18T06:19:35.762Z,78.85
2023-04-18T06:22:03.681Z,79.31
2023-04-18T06:24:31.614Z,79.07
2023-04-18T06:26:59.611Z,78.91
2023-04-18T06:29:33.157Z,78.84
2023-04-18T06:32:01.300Z,78.26
2023-04-18T06:34:29.272Z,78.01
2023-04-18T06:36:57.231Z,77.40
2023-04-18T06:39:25.375Z,77.41
2023-04-18T06:41:53.477Z,76.85
2023-04-18T06:44:28.732Z,76.67
2023-04-18T06:46:56.861Z,76.62
2023-04-18T06:49:26.372Z,76.45
2023-04-18T06:51:54.913Z,76.58
2023-04-18T06:54:22.983Z,76.23
2023-04-18T06:56:52.530Z,76.08
2023-04-18T06:59:21.721Z,76.08
2023-04-18T07:01:50.884Z,75.39
2023-04-18T07:04:19.114Z,74.99
2023-04-18T07:06:47.495Z,75.10
2023-04-18T07:09:15.481Z,75.31
2023-04-18T07:11:43.668Z,74.71
2023-04-18T07:14:12.459Z,74.39
2023-04-18T07:16:40.768Z,74.12
2023-04-18T07:19:09.417Z,74.24
2023-04-18T07:21:38.865Z,73.80
2023-04-18T07:24:06.974Z,73.65
2023-04-18T07:26:35.077Z,73.01
2023-04-18T07:29:03.082Z,72.93
2023-04-18T07:31:31.481Z,73.08
2023-04-18T07:33:59.498Z,72.43
2023-04-18T07:36:28.481Z,72.11
2023-04-18T07:38:56.375Z,71.89
2023-04-18T07:41:24.375Z,71.52
2023-04-18T07:43:52.258Z,71.71
2023-04-18T07:46:20.218Z,71.55
2023-04-18T07:48:48.162Z,71.92
2023-04-18T07:51:16.049Z,71.84
2023-04-18T07:53:44.189Z,71.18
2023-04-18T07:56:15.073Z,71.14
2023-04-18T07:58:42.952Z,71.30
2023-04-18T08:01:14.321Z,71.34
2023-04-18T08:03:42.382Z,71.00
2023-04-18T08:06:10.508Z,71.19
2023-04-18T08:08:38.476Z,71.15
2023-04-18T08:11:06.455Z,70.66
2023-04-18T08:13:34.395Z,70.75
2023-04-18T08:16:03.097Z,70.46
2023-04-18T08:18:31.088Z,70.54
2023-04-18T08:20:59.435Z,70.17
2023-04-18T08:23:27.486Z,70.51
2023-04-18T08:28:29.373Z,70.34
2023-04-18T08:30:57.426Z,70.36
2023-04-18T08:33:25.789Z,70.29
2023-04-18T08:35:53.973Z,69.34
2023-04-18T08:38:21.941Z,69.39
2023-04-18T08:40:49.816Z,69.73
2023-04-18T08:43:17.877Z,69.14
2023-04-18T08:45:45.923Z,69.08
2023-04-18T08:52:34.271Z,68.22
2023-04-18T08:56:06.155Z,68.54
2023-04-18T08:58:35.028Z,68.31
2023-04-18T09:01:03.304Z,68.53
2023-04-18T09:03:41.776Z,68.36
2023-04-18T09:06:14.040Z,68.58
2023-04-18T09:08:46.570Z,68.63
2023-04-18T09:11:42.462Z,68.33
2023-04-18T09:14:24.336Z,67.77
2023-04-18T09:16:52.179Z,67.45
2023-04-18T09:19:21.881Z,67.49
2023-04-18T09:21:59.072Z,67.05
2023-04-18T09:24:28.665Z,67.03
2023-04-18T09:26:59.746Z,67.17
2023-04-18T09:29:49.496Z,67.61
2023-04-18T09:32:30.842Z,67.15
2023-04-18T09:35:04.011Z,66.94
2023-04-18T09:37:32.792Z,66.25
2023-04-18T09:40:00.990Z,66.26
2023-04-18T09:42:36.210Z,66.12
2023-04-18T09:45:08.501Z,66.28
2023-04-18T09:47:37.537Z,65.80
2023-04-18T09:50:07.990Z,65.31
2023-04-18T09:52:38.032Z,65.36
2023-04-18T09:55:08.954Z,65.94
2023-04-18T09:57:41.326Z,65.51
2023-04-18T10:00:27.430Z,65.41
2023-04-18T10:03:16.029Z,65.01
2023-04-18T10:05:44.649Z,65.96
2023-04-18T10:08:14.067Z,64.94
2023-04-18T10:10:42.337Z,65.41
2023-04-18T10:13:13.969Z,65.56
2023-04-18T10:15:44.265Z,65.38
2023-04-18T10:18:16.599Z,66.01
2023-04-18T10:20:47.076Z,65.80
2023-04-18T10:23:38.655Z,65.93
2023-04-18T10:26:12.095Z,64.98
2023-04-18T10:28:59.014Z,64.64
2023-04-18T10:31:29.140Z,64.60
2023-04-18T10:36:30.443Z,65.24
2023-04-18T10:39:21.047Z,65.39
2023-04-18T10:41:51.081Z,65.27
2023-04-18T10:44:22.895Z,64.84
2023-04-18T10:46:51.505Z,64.46
2023-04-18T10:49:27.369Z,64.93
2023-04-18T10:52:01.360Z,65.39
2023-04-18T10:54:32.403Z,65.91
2023-04-18T10:57:04.770Z,66.22
2023-04-18T10:59:38.470Z,66.44
2023-04-18T11:02:26.495Z,66.78
2023-04-18T11:04:57.361Z,66.59
2023-04-18T11:07:40.195Z,66.97
2023-04-18T11:10:09.869Z,66.75
2023-04-18T11:12:41.071Z,66.78
2023-04-18T11:15:16.084Z,66.86
2023-04-18T11:17:44.581Z,66.81
2023-04-18T11:20:15.141Z,66.22
2023-04-18T11:23:01.461Z,66.27
2023-04-18T11:25:32.372Z,66.51
2023-04-18T11:28:02.256Z,66.71
2023-04-18T11:31:02.066Z,66.93
2023-04-18T11:33:30.522Z,66.87
2023-04-18T11:35:59.614Z,66.46
2023-04-18T11:38:31.183Z,66.53
2023-04-18T11:40:59.435Z,66.36
2023-04-18T11:43:27.384Z,66.25
2023-04-18T11:45:57.169Z,66.12
2023-04-18T11:48:35.018Z,66.02
2023-04-18T11:51:02.884Z,66.17
2023-04-18T11:53:38.294Z,64.43
2023-04-18T11:56:06.957Z,63.24
2023-04-18T11:58:36.466Z,62.86
2023-04-18T12:01:24.786Z,62.79
2023-04-18T12:04:09.263Z,62.83
2023-04-18T12:06:51.294Z,62.63
2023-04-18T12:09:21.753Z,62.23
2023-04-18T12:12:04.057Z,61.90
2023-04-18T12:14:31.914Z,61.84
2023-04-18T12:17:03.688Z,62.13
2023-04-18T12:19:32.900Z,62.85
2023-04-18T12:22:05.397Z,62.22
2023-04-18T12:24:33.991Z,61.48
2023-04-18T12:27:02.366Z,61.27
2023-04-18T12:29:30.568Z,60.60
2023-04-18T12:31:58.709Z,59.99
2023-04-18T12:34:26.728Z,60.16
2023-04-18T12:36:54.649Z,59.50
2023-04-18T12:39:22.577Z,59.33
2023-04-18T12:41:50.635Z,59.07
2023-04-18T12:44:19.766Z,59.95
2023-04-18T12:46:48.073Z,59.31
2023-04-18T12:49:16.080Z,58.48
2023-04-18T12:51:44.066Z,58.30
2023-04-18T12:54:12.363Z,58.93
2023-04-18T12:56:40.466Z,58.70
2023-04-18T12:59:08.307Z,57.75
2023-04-18T13:01:36.577Z,57.40
2023-04-18T13:04:12.546Z,57.49
2023-04-18T13:06:41.541Z,57.52
2023-04-18T13:09:10.518Z,56.94
2023-04-18T13:11:38.442Z,56.91
2023-04-18T13:14:06.423Z,56.62
2023-04-18T13:16:34.426Z,56.97
2023-04-18T13:19:02.300Z,56.95
2023-04-18T13:21:31.457Z,55.91
2023-04-18T13:23:59.427Z,55.97
2023-04-18T13:26:27.498Z,56.18
2023-04-18T13:28:55.571Z,56.07
2023-04-18T13:31:23.993Z,56.61
2023-04-18T13:33:52.021Z,56.47
2023-04-18T13:36:20.760Z,55.83
2023-04-18T13:38:48.846Z,55.77
2023-04-18T13:41:16.938Z,55.67
2023-04-18T13:43:44.862Z,55.32
2023-04-18T13:46:12.958Z,55.04
2023-04-18T13:48:40.960Z,55.56
2023-04-18T13:51:08.931Z,56.02
2023-04-18T13:53:37.005Z,55.78
2023-04-18T13:56:05.978Z,55.83
2023-04-18T13:58:33.963Z,54.64
2023-04-18T14:01:02.262Z,53.91
2023-04-18T14:03:30.894Z,53.31
2023-04-18T14:05:59.510Z,54.33
2023-04-18T14:08:27.689Z,54.58
2023-04-18T14:10:55.862Z,55.06
2023-04-18T14:13:23.810Z,55.54
2023-04-18T14:15:53.921Z,55.51
2023-04-18T14:18:23.681Z,55.69
2023-04-18T14:20:52.060Z,55.67
2023-04-18T14:23:20.189Z,56.04
2023-04-18T14:25:48.028Z,56.60
2023-04-18T14:28:19.324Z,56.26
2023-04-18T14:30:47.244Z,56.35
2023-04-18T14:33:15.106Z,56.63
2023-04-18T14:35:44.058Z,56.51
2023-04-18T14:38:11.940Z,56.62
2023-04-18T14:40:39.991Z,57.25
2023-04-18T14:43:08.071Z,57.00
2023-04-18T14:45:35.983Z,56.56
2023-04-18T14:48:04.174Z,56.54
2023-04-18T14:50:32.143Z,55.83
2023-04-18T14:53:00.348Z,56.43
2023-04-18T14:55:28.679Z,56.34
2023-04-18T14:57:56.741Z,56.48
2023-04-18T15:00:24.958Z,57.00
2023-04-18T15:02:53.782Z,56.83
2023-04-18T15:05:23.906Z,57.56
2023-04-18T15:07:52.295Z,58.09
2023-04-18T15:10:22.530Z,57.64
2023-04-18T15:12:51.295Z,57.56
2023-04-18T15:15:19.869Z,57.26
2023-04-18T15:17:47.762Z,57.61
2023-04-18T15:20:16.133Z,58.24
2023-04-18T15:22:44.194Z,58.27
2023-04-18T15:25:16.467Z,56.73
2023-04-18T15:27:44.406Z,58.21
2023-04-18T15:30:12.585Z,58.99
2023-04-18T15:32:42.317Z,59.30
2023-04-18T15:35:11.352Z,59.02
2023-04-18T15:37:39.315Z,58.68
2023-04-18T15:40:10.470Z,58.74
2023-04-18T15:42:39.435Z,58.88
2023-04-18T15:45:08.200Z,59.32
2023-04-18T15:47:36.487Z,59.56
2023-04-18T15:50:05.460Z,59.37
2023-04-18T15:52:33.298Z,59.14
2023-04-18T15:55:01.405Z,59.02
2023-04-18T15:57:29.897Z,59.39
2023-04-18T15:59:58.542Z,57.92
2023-04-18T16:02:26.905Z,58.33
2023-04-18T16:04:54.978Z,58.79
2023-04-18T16:07:22.941Z,59.29
2023-04-18T16:09:50.813Z,59.57
2023-04-18T16:12:18.704Z,60.30
2023-04-18T16:14:46.775Z,60.72
2023-04-18T16:17:14.757Z,61.21
2023-04-18T16:19:43.010Z,61.23
2023-04-18T16:22:12.332Z,61.21
2023-04-18T16:24:42.169Z,61.24
2023-04-18T16:27:10.376Z,61.86
2023-04-18T16:29:38.311Z,62.23
2023-04-18T16:32:09.184Z,62.49
2023-04-18T16:34:37.083Z,62.36
2023-04-18T16:37:05.070Z,62.53
2023-04-18T16:39:33.131Z,62.75
2023-04-18T16:42:01.497Z,62.78
2023-04-18T16:44:30.804Z,62.87
2023-04-18T16:46:59.192Z,63.17
2023-04-18T16:49:27.528Z,63.00
2023-04-18T16:51:55.686Z,63.28
2023-04-18T16:54:23.609Z,62.71
2023-04-18T16:56:51.504Z,62.52
2023-04-18T16:59:19.647Z,62.82
2023-04-18T17:01:47.537Z,62.88
2023-04-18T17:04:16.029Z,63.26
2023-04-18T17:06:44.373Z,63.22
2023-04-18T17:09:14.835Z,63.47
2023-04-18T17:11:43.082Z,63.31
2023-04-18T17:14:11.724Z,63.25
2023-04-18T17:16:41.730Z,63.41
2023-04-18T17:19:10.355Z,63.74
2023-04-18T17:21:38.659Z,64.17
2023-04-18T17:24:07.429Z,64.08
2023-04-18T17:26:39.394Z,63.60
2023-04-18T17:29:07.668Z,63.73
2023-04-18T17:31:36.607Z,63.65
2023-04-18T17:34:04.736Z,63.97
2023-04-18T17:36:32.778Z,63.59
2023-04-18T17:39:06.504Z,63.67
2023-04-18T17:41:39.613Z,63.59
2023-04-18T17:44:08.445Z,63.80
2023-04-18T17:46:36.702Z,64.00
2023-04-18T17:49:05.043Z,63.81
2023-04-18T17:51:33.365Z,63.96
2023-04-18T17:54:01.282Z,64.09
2023-04-18T17:56:30.684Z,64.23
2023-04-18T17:58:58.764Z,64.56
2023-04-18T18:01:28.812Z,64.49
2023-04-18T18:03:57.324Z,64.62
2023-04-18T18:06:27.719Z,64.37
2023-04-18T18:08:56.188Z,64.63
2023-04-18T18:11:24.161Z,64.90
2023-04-18T18:13:54.886Z,65.24
2023-04-18T18:16:24.257Z,65.52
2023-04-18T18:18:52.663Z,66.01
2023-04-18T18:21:20.541Z,66.42
2023-04-18T18:23:48.598Z,66.61
2023-04-18T18:26:16.481Z,66.83
2023-04-18T18:28:44.323Z,67.38
2023-04-18T18:31:12.214Z,67.67
2023-04-18T18:33:40.365Z,67.98
2023-04-18T18:36:08.339Z,68.63
2023-04-18T18:38:36.562Z,68.80
2023-04-18T18:41:04.891Z,68.93
2023-04-18T18:43:32.852Z,69.31
2023-04-18T18:46:00.869Z,69.47
2023-04-18T18:48:28.997Z,69.91
2023-04-18T18:50:58.397Z,70.16
2023-04-18T18:53:26.229Z,70.30
2023-04-18T18:55:54.157Z,70.32
2023-04-18T18:58:22.119Z,70.49
2023-04-18T19:00:51.309Z,70.53
2023-04-18T19:03:21.346Z,70.76
2023-04-18T19:05:49.694Z,71.39
2023-04-18T19:08:17.631Z,71.55
2023-04-18T19:10:45.541Z,71.48
2023-04-18T19:13:13.708Z,72.02
2023-04-18T19:15:41.601Z,71.72
2023-04-18T19:18:09.757Z,71.99
2023-04-18T19:20:40.329Z,71.46
2023-04-18T19:23:08.188Z,72.15
2023-04-18T19:25:36.082Z,72.20
2023-04-18T19:28:05.910Z,72.34
2023-04-18T19:30:33.812Z,72.43
2023-04-18T19:33:02.153Z,72.39
2023-04-18T19:35:30.551Z,72.52
2023-04-18T19:38:01.721Z,72.54
2023-04-18T19:40:30.386Z,72.58
2023-04-18T19:42:58.413Z,72.75
2023-04-18T19:45:26.949Z,72.85
2023-04-18T19:47:54.989Z,73.26
2023-04-18T19:50:22.971Z,73.22
2023-04-18T19:52:50.942Z,73.41
2023-04-18T19:55:18.909Z,73.57
2023-04-18T19:57:47.773Z,73.78
2023-04-18T20:00:16.384Z,73.85
2023-04-18T20:02:44.408Z,73.72
2023-04-18T20:05:13.342Z,73.89
2023-04-18T20:07:42.030Z,74.47
2023-04-18T20:10:11.458Z,74.82
2023-04-18T20:12:39.917Z,75.09
2023-04-18T20:15:08.653Z,75.19
2023-04-18T20:17:36.556Z,74.92
2023-04-18T20:20:08.070Z,75.02
2023-04-18T20:22:36.197Z,75.22
2023-04-18T20:25:04.520Z,74.95
2023-04-18T20:27:32.574Z,75.01
2023-04-18T20:30:00.513Z,75.88
2023-04-18T20:32:28.457Z,75.94
2023-04-18T20:34:58.805Z,75.52
2023-04-18T20:37:27.800Z,76.21
2023-04-18T20:39:56.696Z,76.11
2023-04-18T20:42:24.792Z,76.06
2023-04-18T20:44:54.881Z,76.16
2023-04-18T20:47:23.059Z,76.28
2023-04-18T20:49:50.977Z,76.19
2023-04-18T20:52:19.309Z,76.34
2023-04-18T20:54:47.206Z,76.91
2023-04-18T20:57:15.142Z,77.16
2023-04-18T20:59:43.213Z,77.06
2023-04-18T21:02:11.854Z,77.00
2023-04-18T21:04:40.054Z,77.48
2023-04-18T21:07:08.139Z,77.46
2023-04-18T21:09:38.934Z,77.58
2023-04-18T21:12:07.066Z,77.95
2023-04-18T21:14:35.569Z,78.40
2023-04-18T21:17:03.709Z,78.71
2023-04-18T21:19:31.880Z,78.76
2023-04-18T21:21:59.960Z,78.59
2023-04-18T21:24:28.040Z,78.76
2023-04-18T21:26:56.053Z,79.01
2023-04-18T21:29:24.283Z,78.95
2023-04-18T21:31:52.918Z,79.18
2023-04-18T21:34:21.444Z,79.30
2023-04-18T21:36:49.305Z,78.63
2023-04-18T21:39:17.372Z,79.18
2023-04-18T21:41:45.545Z,79.54
2023-04-18T21:44:14.157Z,80.06
2023-04-18T21:46:42.334Z,79.99
2023-04-18T21:49:10.636Z,79.98
2023-04-18T21:51:38.869Z,80.00
2023-04-18T21:54:07.940Z,79.52
2023-04-18T21:56:36.039Z,79.59
2023-04-18T21:59:04.190Z,79.65
2023-04-18T22:01:34.457Z,79.59
2023-04-18T22:04:02.949Z,79.76
2023-04-18T22:06:32.508Z,79.69
2023-04-18T22:09:01.397Z,80.38
2023-04-18T22:11:29.324Z,80.72
2023-04-18T22:13:58.127Z,80.28
2023-04-18T22:16:26.444Z,80.47
2023-04-18T22:18:54.378Z,80.69
2023-04-18T22:21:22.370Z,80.47
2023-04-18T22:23:50.441Z,80.27
2023-04-18T22:26:18.517Z,80.22
2023-04-18T22:28:47.601Z,80.32
2023-04-18T22:31:15.949Z,80.60
2023-04-18T22:33:44.060Z,80.31
2023-04-18T22:36:12.024Z,80.50
2023-04-18T22:38:39.986Z,80.11
2023-04-18T22:41:08.116Z,80.73
2023-04-18T22:43:36.356Z,80.64
2023-04-18T22:46:04.440Z,80.39
2023-04-18T22:48:35.329Z,80.62
2023-04-18T22:51:03.698Z,80.62
2023-04-18T22:53:31.865Z,80.71
2023-04-18T22:55:59.805Z,80.41
2023-04-18T22:58:27.857Z,80.69
2023-04-18T23:00:55.865Z,80.84
2023-04-18T23:03:24.116Z,80.63
2023-04-18T23:05:52.681Z,81.52
2023-04-18T23:08:22.699Z,81.42
2023-04-18T23:10:51.081Z,81.23
2023-04-18T23:13:19.253Z,81.71
2023-04-18T23:15:47.227Z,81.89
2023-04-18T23:18:15.397Z,82.08
2023-04-18T23:20:43.368Z,82.17
2023-04-18T23:23:11.485Z,81.89
2023-04-18T23:25:39.457Z,82.18
2023-04-18T23:28:08.093Z,82.43
2023-04-18T23:30:37.179Z,81.97
2023-04-18T23:33:06.079Z,81.78
2023-04-18T23:35:34.229Z,81.66
2023-04-18T23:38:02.349Z,81.63
2023-04-18T23:40:30.400Z,81.61
2023-04-18T23:42:59.053Z,81.84
2023-04-18T23:45:28.815Z,81.70
2023-04-18T23:47:57.120Z,81.30
2023-04-18T23:50:25.147Z,81.17
2023-04-18T23:52:53.133Z,81.42
2023-04-18T23:55:21.296Z,81.16
2023-04-18T23:57:49.558Z,81.26
